createdAt,value
2022-12-12T00:01:04.351Z,97904.19
2022-12-12T00:03:06.534Z,97908.75
2022-12-12T00:05:10.368Z,97909.56
2022-12-12T00:07:12.044Z,97914.97
2022-12-12T00:09:13.642Z,97906.25
2022-12-12T00:11:15.433Z,97912.47
2022-12-12T00:13:17.214Z,97912.25
2022-12-12T00:15:18.900Z,97912.47
2022-12-12T00:17:20.473Z,97920.34
2022-12-12T00:19:22.074Z,97915.75
2022-12-12T00:21:28.988Z,97918.69
2022-12-12T00:23:30.504Z,97917.66
2022-12-12T00:25:35.864Z,97917.66
2022-12-12T00:27:37.861Z,97915.75
2022-12-12T00:29:39.572Z,97913.88
2022-12-12T00:31:41.541Z,97912.25
2022-12-12T00:33:46.765Z,97916.59
2022-12-12T00:35:55.640Z,97909.56
2022-12-12T00:37:57.162Z,97906.88
2022-12-12T00:39:58.728Z,97906.88
2022-12-12T00:42:00.545Z,97914.97
2022-12-12T00:44:01.967Z,97913.06
2022-12-12T00:46:04.108Z,97916.59
2022-12-12T00:48:06.852Z,97918.25
2022-12-12T00:50:08.942Z,97914.50
2022-12-12T00:52:18.353Z,97923.03
2022-12-12T00:54:20.161Z,97916.59
2022-12-12T00:56:23.657Z,97924.66
2022-12-12T00:58:26.410Z,97917.41
2022-12-12T01:00:30.464Z,97920.09
2022-12-12T01:02:32.073Z,97920.94
2022-12-12T01:04:33.687Z,97929.03
2022-12-12T01:06:35.308Z,97933.59
2022-12-12T01:08:37.484Z,97930.66
2022-12-12T01:10:39.989Z,97930.66
2022-12-12T01:12:43.621Z,97930.66
2022-12-12T01:14:45.439Z,97933.34
2022-12-12T01:16:47.305Z,97937.94
2022-12-12T01:18:50.282Z,97941.44
2022-12-12T01:20:52.608Z,97934.41
2022-12-12T01:22:54.682Z,97931.72
2022-12-12T01:24:57.055Z,97942.28
2022-12-12T01:26:58.774Z,97942.50
2022-12-12T01:29:00.453Z,97943.09
2022-12-12T01:31:08.620Z,97939.81
2022-12-12T01:33:10.470Z,97941.44
2022-12-12T01:35:12.440Z,97949.53
2022-12-12T01:37:14.398Z,97949.75
2022-12-12T01:39:15.938Z,97954.13
2022-12-12T01:41:18.417Z,97947.88
2022-12-12T01:43:22.378Z,97953.47
2022-12-12T01:45:58.351Z,97952.69
2022-12-12T01:48:05.000Z,97954.56
2022-12-12T01:50:09.637Z,97952.69
2022-12-12T01:52:16.269Z,97963.91
2022-12-12T01:54:27.640Z,97966.00
2022-12-12T01:56:30.031Z,97963.50
2022-12-12T01:58:39.066Z,97962.69
2022-12-12T02:00:41.284Z,97970.16
2022-12-12T02:02:47.945Z,97972.25
2022-12-12T02:04:50.317Z,97964.78
2022-12-12T02:06:53.124Z,97964.56
2022-12-12T02:08:58.420Z,97963.94
2022-12-12T02:11:00.617Z,97965.84
2022-12-12T02:13:11.753Z,97973.69
2022-12-12T02:15:13.997Z,97967.47
2022-12-12T02:17:37.784Z,97971.22
2022-12-12T02:20:04.165Z,97973.69
2022-12-12T02:22:40.903Z,97963.34
2022-12-12T02:25:11.155Z,97966.28
2022-12-12T02:27:33.288Z,97969.81
2022-12-12T02:30:16.612Z,97973.53
2022-12-12T02:32:33.375Z,97981.38
2022-12-12T02:35:02.259Z,97978.09
2022-12-12T02:37:13.280Z,97977.25
2022-12-12T02:39:29.063Z,97977.25
2022-12-12T02:41:39.660Z,97973.75
2022-12-12T02:44:09.431Z,97976.47
2022-12-12T02:46:21.150Z,97978.91
2022-12-12T02:48:50.620Z,97982.44
2022-12-12T02:50:54.596Z,97975.19
2022-12-12T02:52:56.543Z,97979.75
2022-12-12T02:54:58.318Z,97994.84
2022-12-12T02:57:04.041Z,97988.44
2022-12-12T02:59:05.815Z,97994.84
2022-12-12T03:01:34.191Z,98000.25
2022-12-12T03:04:02.605Z,97997.53
2022-12-12T03:06:57.445Z,97992.38
2022-12-12T03:09:11.024Z,97993.44
2022-12-12T03:11:17.199Z,97994.25
2022-12-12T03:13:40.544Z,97992.81
2022-12-12T03:15:56.537Z,98000.91
2022-12-12T03:18:18.156Z,97992.00
2022-12-12T03:20:28.663Z,97997.38
2022-12-12T03:22:43.774Z,97998.44
2022-12-12T03:25:09.767Z,97993.06
2022-12-12T03:27:22.241Z,97998.44
2022-12-12T03:29:52.172Z,97998.44
2022-12-12T03:32:03.420Z,97988.69
2022-12-12T03:34:14.743Z,97994.69
2022-12-12T03:36:25.067Z,97994.69
2022-12-12T03:38:34.502Z,97997.38
2022-12-12T03:40:46.492Z,97995.53
2022-12-12T03:43:02.524Z,98003.41
2022-12-12T03:45:14.322Z,98006.28
2022-12-12T03:47:28.630Z,98001.75
2022-12-12T03:49:42.899Z,98000.91
2022-12-12T03:51:50.011Z,97996.34
2022-12-12T03:54:15.360Z,98000.09
2022-12-12T03:56:25.986Z,97997.38
2022-12-12T03:58:33.908Z,97997.19
2022-12-12T04:00:37.409Z,97993.06
2022-12-12T04:03:02.773Z,97991.19
2022-12-12T04:05:32.724Z,98000.09
2022-12-12T04:07:41.511Z,97998.44
2022-12-12T04:10:02.204Z,97996.59
2022-12-12T04:12:53.075Z,98002.19
2022-12-12T04:15:19.497Z,98001.34
2022-12-12T04:17:29.912Z,98000.53
2022-12-12T04:20:23.810Z,98005.09
2022-12-12T04:22:49.618Z,98010.50
2022-12-12T04:25:02.537Z,98006.38
2022-12-12T04:27:21.937Z,98004.69
2022-12-12T04:29:51.046Z,98005.78
2022-12-12T04:32:00.939Z,98004.69
2022-12-12T04:34:10.561Z,98023.38
2022-12-12T04:36:15.291Z,98015.47
2022-12-12T04:38:21.918Z,98020.88
2022-12-12T04:40:29.590Z,98017.56
2022-12-12T04:42:37.154Z,98019.66
2022-12-12T04:44:42.684Z,98018.25
2022-12-12T04:46:46.971Z,98010.81
2022-12-12T04:49:02.801Z,98019.34
2022-12-12T04:51:06.721Z,98020.78
2022-12-12T04:53:18.594Z,98029.34
2022-12-12T04:55:34.212Z,98024.81
2022-12-12T04:57:41.239Z,98021.50
2022-12-12T04:59:43.230Z,98021.94
2022-12-12T05:02:20.538Z,98016.16
2022-12-12T05:04:39.775Z,98022.78
2022-12-12T05:06:50.053Z,98030.28
2022-12-12T05:08:55.256Z,98030.50
2022-12-12T05:11:00.293Z,98036.06
2022-12-12T05:13:01.919Z,98038.16
2022-12-12T05:15:03.993Z,98024.34
2022-12-12T05:17:12.766Z,98032.00
2022-12-12T05:19:14.504Z,98029.97
2022-12-12T05:21:16.890Z,98032.25
2022-12-12T05:23:18.670Z,98032.91
2022-12-12T05:25:20.213Z,98041.41
2022-12-12T05:27:23.043Z,98034.56
2022-12-12T05:29:25.921Z,98037.09
2022-12-12T05:31:27.732Z,98042.09
2022-12-12T05:33:29.268Z,98044.13
2022-12-12T05:35:34.065Z,98045.41
2022-12-12T05:37:35.807Z,98049.34
2022-12-12T05:39:37.631Z,98040.88
2022-12-12T05:41:41.615Z,98041.31
2022-12-12T05:43:43.371Z,98039.03
2022-12-12T05:45:45.036Z,98045.66
2022-12-12T05:47:46.785Z,98047.75
2022-12-12T05:49:49.148Z,98052.72
2022-12-12T05:51:50.734Z,98054.19
2022-12-12T05:53:52.411Z,98054.59
2022-12-12T05:55:57.280Z,98053.38
2022-12-12T05:57:58.960Z,98053.81
2022-12-12T06:00:00.689Z,98055.25
2022-12-12T06:02:02.514Z,98052.38
2022-12-12T06:04:05.713Z,98058.38
2022-12-12T06:06:07.411Z,98063.38
2022-12-12T06:08:10.669Z,98064.78
2022-12-12T06:10:14.603Z,98070.59
2022-12-12T06:12:16.375Z,98072.88
2022-12-12T06:14:18.394Z,98074.31
2022-12-12T06:16:20.383Z,98083.84
2022-12-12T06:18:22.229Z,98079.09
2022-12-12T06:20:24.032Z,98084.88
2022-12-12T06:22:28.146Z,98085.28
2022-12-12T06:24:29.724Z,98078.69
2022-12-12T06:26:31.510Z,98085.09
2022-12-12T06:28:33.295Z,98085.50
2022-12-12T06:30:35.042Z,98092.09
2022-12-12T06:32:36.754Z,98096.03
2022-12-12T06:34:38.865Z,98098.09
2022-12-12T06:36:43.491Z,98098.50
2022-12-12T06:38:45.292Z,98090.25
2022-12-12T06:40:50.099Z,98099.34
2022-12-12T06:42:52.256Z,98099.97
2022-12-12T06:44:54.000Z,98093.97
2022-12-12T06:46:58.294Z,98104.31
2022-12-12T06:49:00.382Z,98114.44
2022-12-12T06:51:07.820Z,98111.53
2022-12-12T06:53:09.937Z,98111.09
2022-12-12T06:55:12.309Z,98109.66
2022-12-12T06:57:16.719Z,98109.22
2022-12-12T06:59:18.369Z,98105.91
2022-12-12T07:01:22.747Z,98105.50
2022-12-12T07:03:24.312Z,98108.38
2022-12-12T07:05:26.145Z,98107.94
2022-12-12T07:07:27.569Z,98106.31
2022-12-12T07:09:29.369Z,98106.72
2022-12-12T07:11:31.061Z,98111.66
2022-12-12T07:13:33.113Z,98110.00
2022-12-12T07:15:34.790Z,98119.28
2022-12-12T07:17:36.472Z,98127.53
2022-12-12T07:19:38.158Z,98116.16
2022-12-12T07:21:42.588Z,98129.81
2022-12-12T07:23:44.290Z,98125.44
2022-12-12T07:25:46.003Z,98131.88
2022-12-12T07:27:47.578Z,98128.53
2022-12-12T07:29:49.083Z,98129.56
2022-12-12T07:31:50.772Z,98130.59
2022-12-12T07:33:55.374Z,98123.59
2022-12-12T07:36:00.949Z,98135.13
2022-12-12T07:38:04.154Z,98132.66
2022-12-12T07:40:06.210Z,98137.41
2022-12-12T07:42:07.935Z,98145.44
2022-12-12T07:44:09.779Z,98145.84
2022-12-12T07:46:15.459Z,98143.56
2022-12-12T07:48:17.336Z,98152.66
2022-12-12T07:50:19.555Z,98142.94
2022-12-12T07:52:21.606Z,98152.84
2022-12-12T07:54:23.259Z,98152.22
2022-12-12T07:56:25.129Z,98154.06
2022-12-12T07:58:27.054Z,98155.09
2022-12-12T08:00:28.778Z,98158.81
2022-12-12T08:02:30.414Z,98153.84
2022-12-12T08:04:33.103Z,98160.25
2022-12-12T08:06:34.824Z,98159.41
2022-12-12T08:08:36.663Z,98154.88
2022-12-12T08:10:41.510Z,98161.47
2022-12-12T08:12:45.741Z,98157.94
2022-12-12T08:14:47.553Z,98160.63
2022-12-12T08:16:49.159Z,98158.97
2022-12-12T08:18:54.125Z,98158.97
2022-12-12T08:20:58.793Z,98166.00
2022-12-12T08:23:00.449Z,98160.63
2022-12-12T08:25:02.378Z,98163.09
2022-12-12T08:27:06.943Z,98158.56
2022-12-12T08:29:11.987Z,98170.53
2022-12-12T08:31:14.205Z,98166.84
2022-12-12T08:33:40.728Z,98177.38
2022-12-12T08:35:44.228Z,98171.81
2022-12-12T08:37:45.879Z,98177.19
2022-12-12T08:39:52.737Z,98171.00
2022-12-12T08:41:57.132Z,98169.75
2022-12-12T08:43:59.063Z,98169.56
2022-12-12T08:46:02.146Z,98174.91
2022-12-12T08:48:04.090Z,98169.38
2022-12-12T08:50:06.653Z,98172.69
2022-12-12T08:52:12.150Z,98182.19
2022-12-12T08:54:14.560Z,98172.91
2022-12-12T08:56:17.682Z,98175.38
2022-12-12T08:58:22.645Z,98169.81
2022-12-12T09:00:24.300Z,98179.13
2022-12-12T09:02:26.232Z,98183.47
2022-12-12T09:04:27.839Z,98185.75
2022-12-12T09:06:38.799Z,98186.38
2022-12-12T09:08:43.961Z,98192.16
2022-12-12T09:10:50.139Z,98189.06
2022-12-12T09:12:52.179Z,98195.06
2022-12-12T09:14:53.931Z,98193.84
2022-12-12T09:16:55.976Z,98204.19
2022-12-12T09:18:57.619Z,98203.78
2022-12-12T09:20:59.733Z,98204.41
2022-12-12T09:23:01.369Z,98207.53
2022-12-12T09:25:04.347Z,98214.97
2022-12-12T09:27:06.025Z,98211.88
2022-12-12T09:29:07.607Z,98209.63
2022-12-12T09:31:11.795Z,98216.03
2022-12-12T09:33:14.426Z,98214.00
2022-12-12T09:35:16.388Z,98213.56
2022-12-12T09:37:18.352Z,98213.78
2022-12-12T09:39:20.006Z,98219.81
2022-12-12T09:41:27.293Z,98218.38
2022-12-12T09:43:33.578Z,98218.78
2022-12-12T09:45:37.890Z,98217.56
2022-12-12T09:47:46.120Z,98216.31
2022-12-12T09:49:50.970Z,98216.72
2022-12-12T09:51:54.363Z,98216.09
2022-12-12T09:53:56.204Z,98222.53
2022-12-12T09:56:24.971Z,98226.66
2022-12-12T09:58:49.102Z,98220.69
2022-12-12T10:01:05.083Z,98220.09
2022-12-12T10:03:26.656Z,98218.41
2022-12-12T10:05:42.528Z,98227.53
2022-12-12T10:07:54.702Z,98219.66
2022-12-12T10:10:15.189Z,98226.91
2022-12-12T10:12:20.204Z,98223.59
2022-12-12T10:14:32.587Z,98227.34
2022-12-12T10:16:35.707Z,98221.34
2022-12-12T10:18:44.445Z,98223.63
2022-12-12T10:20:55.546Z,98221.13
2022-12-12T10:23:20.265Z,98226.09
2022-12-12T10:25:35.531Z,98222.56
2022-12-12T10:27:38.435Z,98220.91
2022-12-12T10:29:49.383Z,98220.25
2022-12-12T10:32:32.582Z,98223.16
2022-12-12T10:34:53.223Z,98226.25
2022-12-12T10:37:22.398Z,98230.19
2022-12-12T10:39:44.419Z,98228.75
2022-12-12T10:41:55.739Z,98207.59
2022-12-12T10:44:47.067Z,98218.38
2022-12-12T10:47:12.194Z,98212.34
2022-12-12T10:49:18.642Z,98214.22
2022-12-12T10:51:22.813Z,98212.72
2022-12-12T10:53:24.758Z,98212.09
2022-12-12T10:55:43.960Z,98217.66
2022-12-12T10:57:45.830Z,98207.06
2022-12-12T10:59:52.099Z,98206.25
2022-12-12T11:02:14.691Z,98208.06
2022-12-12T11:04:16.860Z,98211.78
2022-12-12T11:06:30.580Z,98205.53
2022-12-12T11:08:37.051Z,98202.19
2022-12-12T11:10:47.563Z,98203.22
2022-12-12T11:12:56.614Z,98200.28
2022-12-12T11:15:05.249Z,98198.84
2022-12-12T11:17:27.556Z,98201.06
2022-12-12T11:19:39.857Z,98190.94
2022-12-12T11:21:41.520Z,98200.22
2022-12-12T11:23:52.693Z,98197.28
2022-12-12T11:25:56.417Z,98198.53
2022-12-12T11:28:06.580Z,98200.81
2022-12-12T11:30:23.662Z,98195.19
2022-12-12T11:32:32.232Z,98193.94
2022-12-12T11:34:43.609Z,98193.50
2022-12-12T11:36:45.574Z,98196.59
2022-12-12T11:38:51.683Z,98188.88
2022-12-12T11:41:01.260Z,98189.28
2022-12-12T11:43:25.447Z,98186.75
2022-12-12T11:45:27.552Z,98195.84
2022-12-12T11:47:41.123Z,98196.03
2022-12-12T11:49:48.434Z,98191.00
2022-12-12T11:51:50.049Z,98184.13
2022-12-12T11:53:51.860Z,98189.06
2022-12-12T11:55:57.171Z,98187.81
2022-12-12T11:58:21.301Z,98184.66
2022-12-12T12:00:29.159Z,98188.19
2022-12-12T12:02:53.138Z,98185.28
2022-12-12T12:05:22.240Z,98184.47
2022-12-12T12:07:46.530Z,98187.38
2022-12-12T12:10:01.605Z,98179.66
2022-12-12T12:12:11.463Z,98180.72
2022-12-12T12:14:40.415Z,98186.09
2022-12-12T12:16:50.184Z,98181.78
2022-12-12T12:19:13.497Z,98181.53
2022-12-12T12:21:47.168Z,98180.94
2022-12-12T12:23:50.523Z,98183.63
2022-12-12T12:25:58.184Z,98182.56
2022-12-12T12:28:26.895Z,98180.34
2022-12-12T12:31:03.017Z,98191.13
2022-12-12T12:33:25.952Z,98185.09
2022-12-12T12:35:49.820Z,98184.50
2022-12-12T12:38:20.612Z,98184.50
2022-12-12T12:40:40.813Z,98184.50
2022-12-12T12:42:56.477Z,98177.47
2022-12-12T12:45:14.153Z,98186.38
2022-12-12T12:47:37.850Z,98190.97
2022-12-12T12:49:46.146Z,98193.44
2022-12-12T12:52:14.200Z,98190.72
2022-12-12T12:54:33.522Z,98189.91
2022-12-12T12:56:48.585Z,98193.44
2022-12-12T12:58:52.690Z,98193.19
2022-12-12T13:01:03.810Z,98196.97
2022-12-12T13:03:13.749Z,98190.50
2022-12-12T13:05:42.162Z,98195.91
2022-12-12T13:08:02.488Z,98193.19
2022-12-12T13:10:16.903Z,98194.03
2022-12-12T13:13:01.320Z,98195.91
2022-12-12T13:15:07.959Z,98187.81
2022-12-12T13:17:18.024Z,98188.03
2022-12-12T13:19:35.831Z,98188.03
2022-12-12T13:21:48.838Z,98191.56
2022-12-12T13:24:01.774Z,98192.41
2022-12-12T13:26:13.316Z,98195.28
2022-12-12T13:28:23.041Z,98189.91
2022-12-12T13:30:35.739Z,98199.66
2022-12-12T13:32:58.745Z,98194.47
2022-12-12T13:35:06.639Z,98199.66
2022-12-12T13:37:08.579Z,98195.28
2022-12-12T13:39:24.641Z,98196.34
2022-12-12T13:41:26.312Z,98194.25
2022-12-12T13:43:41.590Z,98195.09
2022-12-12T13:45:49.182Z,98184.50
2022-12-12T13:47:55.316Z,98195.28
2022-12-12T13:50:03.446Z,98185.34
2022-12-12T13:52:31.866Z,98190.97
2022-12-12T13:54:34.344Z,98193.44
2022-12-12T13:56:43.825Z,98200.91
2022-12-12T13:58:45.613Z,98202.78
2022-12-12T14:00:47.545Z,98203.63
2022-12-12T14:03:17.538Z,98201.94
2022-12-12T14:05:27.919Z,98203.63
2022-12-12T14:07:33.145Z,98199.06
2022-12-12T14:09:48.269Z,98203.63
2022-12-12T14:11:52.429Z,98201.75
2022-12-12T14:14:05.184Z,98203.03
2022-12-12T14:16:20.213Z,98201.13
2022-12-12T14:18:30.325Z,98207.94
2022-12-12T14:20:39.970Z,98205.47
2022-12-12T14:22:44.315Z,98209.00
2022-12-12T14:25:19.796Z,98207.16
2022-12-12T14:27:49.226Z,98207.34
2022-12-12T14:29:50.975Z,98200.91
2022-12-12T14:32:11.139Z,98201.94
2022-12-12T14:34:24.555Z,98198.41
2022-12-12T14:36:49.945Z,98204.88
2022-12-12T14:39:23.730Z,98201.34
2022-12-12T14:41:38.971Z,98202.38
2022-12-12T14:43:46.568Z,98208.59
2022-12-12T14:46:16.276Z,98205.31
2022-12-12T14:48:25.329Z,98203.44
2022-12-12T14:50:27.487Z,98201.78
2022-12-12T14:52:29.152Z,98198.25
2022-12-12T14:54:34.104Z,98198.25
2022-12-12T14:56:44.368Z,98193.09
2022-12-12T14:58:56.538Z,98203.88
2022-12-12T15:01:01.634Z,98200.34
2022-12-12T15:03:04.516Z,98191.44
2022-12-12T15:05:07.996Z,98202.44
2022-12-12T15:07:30.475Z,98208.06
2022-12-12T15:09:39.745Z,98206.41
2022-12-12T15:11:41.829Z,98206.63
2022-12-12T15:13:51.025Z,98207.91
2022-12-12T15:15:54.106Z,98208.69
2022-12-12T15:18:02.073Z,98205.41
2022-12-12T15:20:09.598Z,98207.50
2022-12-12T15:22:27.235Z,98210.63
2022-12-12T15:24:38.087Z,98204.63
2022-12-12T15:26:39.857Z,98205.06
2022-12-12T15:28:45.267Z,98210.88
2022-12-12T15:30:51.884Z,98209.25
2022-12-12T15:32:53.904Z,98207.56
2022-12-12T15:35:07.951Z,98206.38
2022-12-12T15:37:31.083Z,98215.50
2022-12-12T15:39:32.832Z,98215.50
2022-12-12T15:41:36.627Z,98213.22
2022-12-12T15:43:46.249Z,98223.41
2022-12-12T15:46:00.132Z,98219.50
2022-12-12T15:48:02.712Z,98220.28
2022-12-12T15:50:23.509Z,98220.75
2022-12-12T15:52:27.317Z,98212.88
2022-12-12T15:54:28.975Z,98214.34
2022-12-12T15:56:30.972Z,98210.41
2022-12-12T15:58:38.479Z,98209.19
2022-12-12T16:00:40.565Z,98202.81
2022-12-12T16:02:58.085Z,98205.31
2022-12-12T16:05:07.945Z,98208.44
2022-12-12T16:07:22.293Z,98212.84
2022-12-12T16:09:26.304Z,98213.25
2022-12-12T16:11:47.923Z,98215.75
2022-12-12T16:13:49.657Z,98217.22
2022-12-12T16:15:51.617Z,98210.59
2022-12-12T16:18:02.158Z,98221.19
2022-12-12T16:20:11.352Z,98218.09
2022-12-12T16:22:47.795Z,98218.13
2022-12-12T16:24:56.056Z,98222.06
2022-12-12T16:27:00.687Z,98223.31
2022-12-12T16:29:04.202Z,98224.56
2022-12-12T16:31:15.940Z,98227.47
2022-12-12T16:33:32.026Z,98236.16
2022-12-12T16:35:33.987Z,98227.47
2022-12-12T16:37:35.705Z,98236.19
2022-12-12T16:39:37.132Z,98238.25
2022-12-12T16:41:40.196Z,98228.94
2022-12-12T16:43:42.215Z,98228.31
2022-12-12T16:45:44.499Z,98240.34
2022-12-12T16:47:46.153Z,98239.94
2022-12-12T16:49:48.968Z,98241.19
2022-12-12T16:51:51.449Z,98238.69
2022-12-12T16:53:53.184Z,98240.75
2022-12-12T16:55:55.223Z,98249.84
2022-12-12T16:57:57.105Z,98238.47
2022-12-12T16:59:58.773Z,98237.84
2022-12-12T17:02:00.758Z,98239.09
2022-12-12T17:04:02.661Z,98234.78
2022-12-12T17:06:05.089Z,98245.94
2022-12-12T17:08:15.506Z,98241.81
2022-12-12T17:10:18.929Z,98244.72
2022-12-12T17:12:20.552Z,98242.22
2022-12-12T17:14:24.720Z,98238.06
2022-12-12T17:16:28.058Z,98245.53
2022-12-12T17:18:30.256Z,98248.63
2022-12-12T17:20:37.720Z,98250.91
2022-12-12T17:22:40.787Z,98247.81
2022-12-12T17:24:42.621Z,98248.22
2022-12-12T17:26:44.513Z,98248.63
2022-12-12T17:28:46.134Z,98242.84
2022-12-12T17:30:49.997Z,98241.38
2022-12-12T17:35:10.950Z,98236.22
2022-12-12T17:37:12.524Z,98237.44
2022-12-12T17:39:14.235Z,98240.53
2022-12-12T17:41:19.145Z,98243.84
2022-12-12T17:43:21.057Z,98249.00
2022-12-12T17:45:31.905Z,98248.56
2022-12-12T17:47:34.276Z,98243.63
2022-12-12T17:49:37.510Z,98253.94
2022-12-12T17:51:39.111Z,98261.38
2022-12-12T17:53:40.952Z,98252.88
2022-12-12T17:55:53.007Z,98252.47
2022-12-12T17:57:57.584Z,98256.81
2022-12-12T18:00:04.971Z,98253.69
2022-12-12T18:02:16.844Z,98257.81
2022-12-12T18:04:20.844Z,98259.22
2022-12-12T18:06:26.250Z,98265.03
2022-12-12T18:08:27.948Z,98269.13
2022-12-12T18:10:31.946Z,98272.19
2022-12-12T18:12:33.532Z,98277.34
2022-12-12T18:14:36.376Z,98269.91
2022-12-12T18:16:38.164Z,98277.53
2022-12-12T18:18:49.952Z,98274.63
2022-12-12T18:20:52.598Z,98274.19
2022-12-12T18:22:56.127Z,98278.09
2022-12-12T18:24:57.718Z,98276.81
2022-12-12T18:27:00.370Z,98279.91
2022-12-12T18:29:05.708Z,98280.50
2022-12-12T18:31:08.688Z,98284.41
2022-12-12T18:33:10.413Z,98289.34
2022-12-12T18:35:12.340Z,98279.22
2022-12-12T18:37:13.981Z,98283.94
2022-12-12T18:39:16.527Z,98275.63
2022-12-12T18:41:18.807Z,98273.16
2022-12-12T18:43:20.358Z,98272.72
2022-12-12T18:45:27.096Z,98272.31
2022-12-12T18:47:32.620Z,98269.16
2022-12-12T18:49:37.165Z,98268.75
2022-12-12T18:51:39.014Z,98268.31
2022-12-12T18:53:41.877Z,98262.50
2022-12-12T18:55:44.910Z,98263.72
2022-12-12T18:57:46.751Z,98263.09
2022-12-12T18:59:48.437Z,98268.03
2022-12-12T19:01:52.354Z,98265.72
2022-12-12T19:03:58.510Z,98276.84
2022-12-12T19:06:08.717Z,98275.59
2022-12-12T19:08:11.253Z,98274.13
2022-12-12T19:10:13.409Z,98278.81
2022-12-12T19:12:15.226Z,98281.09
2022-12-12T19:14:17.513Z,98279.41
2022-12-12T19:16:20.426Z,98276.31
2022-12-12T19:18:28.070Z,98280.38
2022-12-12T19:20:29.859Z,98280.75
2022-12-12T19:22:44.834Z,98276.59
2022-12-12T19:24:47.407Z,98281.56
2022-12-12T19:26:49.830Z,98276.56
2022-12-12T19:28:58.256Z,98285.63
2022-12-12T19:31:00.617Z,98281.28
2022-12-12T19:33:02.385Z,98277.97
2022-12-12T19:35:05.290Z,98284.34
2022-12-12T19:37:07.753Z,98282.50
2022-12-12T19:39:23.273Z,98282.69
2022-12-12T19:41:25.417Z,98291.75
2022-12-12T19:43:30.410Z,98283.91
2022-12-12T19:45:32.121Z,98287.63
2022-12-12T19:47:34.282Z,98286.78
2022-12-12T19:49:37.943Z,98285.94
2022-12-12T19:51:42.265Z,98288.00
2022-12-12T19:53:49.634Z,98281.16
2022-12-12T19:55:57.364Z,98291.03
2022-12-12T19:58:00.477Z,98293.94
2022-12-12T20:00:06.755Z,98297.63
2022-12-12T20:02:11.856Z,98298.00
2022-12-12T20:04:20.987Z,98299.88
2022-12-12T20:06:24.036Z,98297.34
2022-12-12T20:08:29.982Z,98295.72
2022-12-12T20:10:31.883Z,98291.38
2022-12-12T20:12:33.584Z,98292.38
2022-12-12T20:14:35.645Z,98300.41
2022-12-12T20:16:37.358Z,98297.94
2022-12-12T20:18:49.352Z,98294.44
2022-12-12T20:20:57.158Z,98294.81
2022-12-12T20:23:01.748Z,98298.31
2022-12-12T20:25:03.425Z,98291.28
2022-12-12T20:27:05.125Z,98297.84
2022-12-12T20:29:07.772Z,98295.16
2022-12-12T20:31:18.005Z,98298.06
2022-12-12T20:33:26.147Z,98300.94
2022-12-12T20:35:27.941Z,98297.59
2022-12-12T20:37:29.669Z,98296.97
2022-12-12T20:39:31.768Z,98300.69
2022-12-12T20:41:42.634Z,98294.66
2022-12-12T20:43:47.846Z,98302.06
2022-12-12T20:45:52.464Z,98302.06
2022-12-12T20:47:54.627Z,98302.44
2022-12-12T20:49:56.164Z,98308.63
2022-12-12T20:51:59.194Z,98302.63
2022-12-12T20:54:05.328Z,98303.63
2022-12-12T20:56:12.054Z,98302.16
2022-12-12T20:58:13.993Z,98300.69
2022-12-12T21:00:16.086Z,98300.88
2022-12-12T21:02:20.477Z,98302.72
2022-12-12T21:04:23.595Z,98295.91
2022-12-12T21:06:40.720Z,98292.97
2022-12-12T21:08:43.488Z,98291.13
2022-12-12T21:10:46.148Z,98297.69
2022-12-12T21:12:47.869Z,98298.06
2022-12-12T21:14:49.455Z,98295.75
2022-12-12T21:16:51.560Z,98298.63
2022-12-12T21:18:58.700Z,98297.16
2022-12-12T21:21:03.363Z,98297.16
2022-12-12T21:23:05.353Z,98299.34
2022-12-12T21:25:07.245Z,98292.53
2022-12-12T21:27:10.825Z,98298.28
2022-12-12T21:29:13.024Z,98289.59
2022-12-12T21:31:20.350Z,98289.16
2022-12-12T21:33:22.186Z,98288.31
2022-12-12T21:35:23.918Z,98288.50
2022-12-12T21:37:28.588Z,98287.84
2022-12-12T21:39:30.328Z,98291.56
2022-12-12T21:41:34.550Z,98291.72
2022-12-12T21:43:36.917Z,98295.44
2022-12-12T21:45:38.771Z,98287.97
2022-12-12T21:47:40.425Z,98282.78
2022-12-12T21:49:42.205Z,98291.00
2022-12-12T21:51:44.058Z,98282.97
2022-12-12T21:53:48.371Z,98281.31
2022-12-12T21:55:50.481Z,98279.47
2022-12-12T21:57:52.228Z,98277.63
2022-12-12T21:59:54.142Z,98277.81
2022-12-12T22:01:59.326Z,98271.66
2022-12-12T22:04:01.962Z,98286.88
2022-12-12T22:06:24.719Z,98284.34
2022-12-12T22:08:29.182Z,98279.84
2022-12-12T22:10:30.815Z,98281.88
2022-12-12T22:12:32.624Z,98294.63
2022-12-12T22:14:35.470Z,98290.09
2022-12-12T22:16:38.387Z,98291.09
2022-12-12T22:18:40.278Z,98285.94
2022-12-12T22:20:43.023Z,98287.78
2022-12-12T22:22:44.830Z,98284.28
2022-12-12T22:24:46.573Z,98287.16
2022-12-12T22:26:51.389Z,98303.19
2022-12-12T22:28:55.571Z,98295.34
2022-12-12T22:31:07.549Z,98295.69
2022-12-12T22:33:09.389Z,98294.06
2022-12-12T22:35:11.715Z,98292.38
2022-12-12T22:37:15.087Z,98298.78
2022-12-12T22:39:26.017Z,98296.47
2022-12-12T22:41:29.413Z,98299.28
2022-12-12T22:43:31.025Z,98300.34
2022-12-12T22:45:34.887Z,98297.81
2022-12-12T22:47:37.395Z,98298.22
2022-12-12T22:49:39.274Z,98290.34
2022-12-12T22:51:47.048Z,98296.72
2022-12-12T22:53:48.700Z,98288.25
2022-12-12T22:55:50.416Z,98286.75
2022-12-12T22:57:52.084Z,98286.97
2022-12-12T22:59:53.661Z,98284.44
2022-12-12T23:01:55.454Z,98275.16
2022-12-12T23:03:57.892Z,98277.16
2022-12-12T23:06:08.398Z,98279.19
2022-12-12T23:08:11.109Z,98273.84
2022-12-12T23:10:12.983Z,98276.06
2022-12-12T23:12:17.042Z,98266.56
2022-12-12T23:14:22.896Z,98271.25
2022-12-12T23:16:25.025Z,98265.09
2022-12-12T23:18:35.658Z,98258.28
2022-12-12T23:20:37.384Z,98260.09
2022-12-12T23:22:39.330Z,98262.13
2022-12-12T23:24:44.086Z,98260.47
2022-12-12T23:26:45.971Z,98264.97
2022-12-12T23:28:48.587Z,98267.00
2022-12-12T23:30:50.286Z,98264.53
2022-12-12T23:32:52.436Z,98264.88
2022-12-12T23:34:55.697Z,98259.53
2022-12-12T23:36:58.148Z,98266.91
2022-12-12T23:39:02.393Z,98267.28
2022-12-12T23:41:05.978Z,98265.44
2022-12-12T23:43:10.171Z,98262.28
2022-12-12T23:45:11.897Z,98259.81
2022-12-12T23:47:13.950Z,98259.97
2022-12-12T23:49:18.952Z,98266.34
2022-12-12T23:51:20.698Z,98270.00
2022-12-12T23:53:22.266Z,98256.84
2022-12-12T23:55:24.176Z,98258.84
2022-12-12T23:57:25.680Z,98260.72
2022-12-12T23:59:35.348Z,98256.56
